X Fechar
foto
Salvar nos Favoritos

X Fechar
foto
Clique e saiba mais
Clique e saiba mais
Clique e saiba mais
Clique e saiba mais
Clique e saiba mais
Clique e saiba mais
Clique e saiba mais

América Sports

Capacete Companhia

Edgers Racing

KTM Sacramento

Toro Sports

Pro Tech

JPS Racing

MotoX Pneus

JP Motos

Clique e saiba mais

> Notícias > Últimas Notícias

Mundial de Motocross: resultados das classificatórias na Argentina
Publicado em: 03/03/2018

Antonio Cairoli e Pauls Jonass vencem provas classificatórias de sábado
Redação MotoX.com.br: Lucidio Arruda - Fotos: Youthstream


Antonio Cairoli

Antonio Cairoli e Pauls Jonass venceram as provas classificatórias deste sábado, que definem a ordem de escolha do gate para as provas principais do domingo. Jetro Salazar, em 17º na MXGP, e Gustavo Pessoa, em 19º na MX2, foram os melhores sul-americanos.

As provas de domingo largam entre 12h e 16h (horários de Brasília).

Vídeos





Resultados das Provas Classificatórias

P Nr MXGP Nat. Moto V Diff. Gap M.V. Speed
1 222 Cairoli, Antonio ITA KTM 13 24:39.667 0:00.000 1:44.108 53.5
2 89 Van Horebeek, Jeremy BEL Yam 13 0:05.845 0:05.845 1:45.485 52.8
3 25 Desalle, Clement BEL Kaw 13 0:08.115 0:02.270 1:45.180 53
4 461 Febvre, Romain FRA Yam 13 0:08.868 0:00.753 1:44.977 53.1
5 24 Simpson, Shaun GBR Yam 13 0:18.621 0:09.753 1:45.443 52.9
6 99 Anstie, Max GBR Hus 13 0:20.276 0:01.655 1:46.195 52.5
7 84 Herlings, Jeffrey NED KTM 13 0:23.435 0:03.159 1:44.482 53.4
8 91 Seewer, Jeremy SUI Yam 13 0:23.747 0:00.312 1:45.394 52.9
9 21 Paulin, Gautier FRA Hus 13 0:28.444 0:04.697 1:46.499 52.3
10 33 Lieber, Julien BEL Kaw 13 0:41.447 0:13.003 1:44.544 53.3
11 777 Bobryshev, Evgeny RUS Suz 13 0:53.430 0:11.983 1:47.268 52
12 100 Searle, Tommy GBR Kaw 13 0:56.244 0:02.814 1:47.426 51.9
13 22 Strijbos, Kevin BEL KTM 13 0:57.434 0:01.190 1:48.024 51.6
14 77 Lupino, Alessandro ITA Kaw 13 1:01.585 0:04.151 1:48.426 51.4
15 12 Nagl, Maximilian GER TM 13 1:03.022 0:01.437 1:48.408 51.4
16 128 Monticelli, Ivo ITA Yam 13 1:12.252 0:09.230 1:49.154 51.1
17 28 Salazar, Jetro PER Hon 13 1:16.128 0:03.876 1:48.862 51.2
18 259 Coldenhoff, Glenn NED KTM 13 1:17.202 0:01.074 1:46.888 52.2
19 7 Leok, Tanel EST Hus 13 1:18.538 0:01.336 1:50.165 50.6
20 27 Jasikonis, Arminas LTU Hon 13 1:21.265 0:02.727 1:48.645 51.3
21 55 Irwin, Graeme GBR KTM 13 1:22.614 0:01.349 1:48.803 51.2
22 17 Butron, Jose ESP KTM 13 1:23.845 0:01.231 1:50.540 50.4
23 179 Poli, Joaquin ARG Hon 13 1:27.400 0:03.555 1:50.193 50.6
24 152 Petrov, Petar BUL Hon 13 1:34.615 0:07.215 1:49.463 50.9
25 171 Luzzardi, Juan Pablo ARG KTM 12 1 lap 1 lap 1:50.327 50.5
26 230 Assuncao , Hector BRA Hon 12 1 lap 0:38.024 1:53.077 49.3
27 58 Carranza, Nicolas ARG Hus 12 1 lap 0:01.627 1:55.459 48.3
28 175 Garrido, Victor ARG Yam 12 1 lap 0:51.681 1:55.297 48.3
29 40 Cabrera, Hernan URU Hon 10 3 laps 2 laps 2:00.177 46.4


 


P Nr MX2 Nat. Bike V Diff. Gap M.V. Speed
1 1 Jonass, Pauls LAT KTM 13 24:47.569 0:00.000 1:45.246 53
2 19 Olsen, Thomas Kjer DEN Hus 13 0:06.321 0:06.321 1:45.555 52.8
3 919 Watson, Ben GBR Yam 13 0:12.151 0:05.830 1:46.219 52.5
4 96 Lawrence, Hunter AUS Hon 13 0:21.926 0:09.775 1:47.123 52
5 10 Vlaanderen, Calvin RSA Hon 13 0:27.266 0:05.340 1:47.079 52.1
6 57 Sanayei, Darian USA Kaw 13 0:29.347 0:02.081 1:47.385 51.9
7 64 Covington, Thomas USA Hus 13 0:35.985 0:06.638 1:47.506 51.9
8 161 Östlund, Alvin SWE Yam 13 0:40.054 0:04.069 1:47.960 51.6
9 747 Cervellin, Michele ITA Hon 13 0:43.362 0:03.308 1:47.772 51.7
10 426 Mewse, Conrad GBR KTM 13 0:43.727 0:00.365 1:47.601 51.8
11 14 Beaton, Jed AUS Kaw 13 0:44.581 0:00.854 1:48.290 51.5
12 46 Pootjes, Davy NED KTM 13 0:49.424 0:04.843 1:46.976 52.1
13 193 Geerts, Jago BEL Yam 13 0:53.277 0:03.853 1:47.138 52
14 98 Vaessen, Bas NED Hon 13 0:56.370 0:03.093 1:48.737 51.3
15 29 Jacobi, Henry GER Hus 13 1:01.357 0:04.987 1:48.571 51.3
16 321 Bernardini, Samuele ITA TM 13 1:06.801 0:05.444 1:49.071 51.1
17 18 Brylyakov, Vsevolod RUS Yam 13 1:08.813 0:02.012 1:48.611 51.3
18 118 Rubini, Stephen FRA KTM 13 1:17.725 0:08.912 1:49.125 51.1
19 891 Souza, Gustavo BRA Hon 13 1:21.085 0:03.360 1:49.866 50.7
20 56 Weltin, Marshal USA Hon 13 1:28.480 0:07.395 1:51.195 50.1
21 66 Larranaga Olano, Iker ESP Hus 12 1 lap 1 lap 1:48.383 51.4
22 194 Vasquez, Javier CHL Hon 12 1 lap 0:08.357 1:52.466 49.6
23 133 Righi, Luciano ARG Hus 12 1 lap 0:20.721 1:55.090 48.4
24 375 Seibel, Pablo Julian ARG Hon 12 1 lap 0:01.147 1:54.447 48.7
25 276 Villaronga, Sergio CHL Hon 12 1 lap 0:32.826 1:52.997 49.3
26 833 Toro, Lautaro ARG Kaw 12 1 lap 0:14.573 1:56.940 47.7
27 122 Bratschi, German URU Hus 12 1 lap 0:32.837 1:57.739 47.3
28 61 Prado, Jorge ESP KTM 8 5 laps 4 laps 1:45.213 53
29 172 Van doninck, Brent BEL Hus 8 5 laps 0:02.797 1:49.570 50.9
30 811 Sterry, Adam GBR Kaw 0 13 laps 8 laps 0:00.000 0
31 44 Lesiardo, Morgan ITA KTM -1 14 laps 1 lap 0:00.000 0
32 934 Dunka, Lucas BRA Hon -1 14 laps 0:00.000 0:00.000 0










Curso MotoX
JPS Racing

© 2000 - 2018 MotoX MX1 Internet